Terminal Aerodrome Forecast
Issued by NWS

Home | Current Version | Previous Version | Text Only | Print | Product List | Glossary On
Versions: 1 2 3 4 5 6 7 8 9 10 11 12
000
FTPA31 PHFO 241731
TAFHMK
TAF
PHMK 241731Z 2418/2518 04014G22KT P6SM VCSH SCT025 BKN045
     FM242000 03020G28KT P6SM VCSH SCT025 BKN045
     FM250500 04014G20KT P6SM VCSH SCT025 BKN045=

USA.gov is the U.S. government's official web portal to all federal, state and local government web resources and services.